Time;durP1;ratioP1;P1;durP2;ratioP2;P2;SDS_P1;SDS_P2;PMS_P1;PMS_P2;Temp;Humidity;BMP_temperature;BMP_pressure;BME280_temperature;BME280_humidity;BME280_pressure;Samples;Min_cycle;Max_cycle;Signal;HPM_P1;HPM_P2
2023/03/24 00:00:29;;;;;;;5.87;4.37;;;12.80;77.90;;;;;;5012245;28;20529;-71
2023/03/24 00:03:00;;;;;;;5.07;4.13;;;12.70;81.20;;;;;;5012393;28;20469;-68
2023/03/24 00:05:29;;;;;;;5.33;4.40;;;12.50;80.90;;;;;;5012367;28;20855;-71
2023/03/24 00:07:58;;;;;;;5.30;4.30;;;12.60;83.60;;;;;;5012079;28;20469;-69
2023/03/24 00:10:29;;;;;;;4.73;3.90;;;12.50;85.30;;;;;;5012090;28;20582;-69
2023/03/24 00:12:57;;;;;;;4.80;4.30;;;12.40;84.20;;;;;;5011903;28;20764;-69
2023/03/24 00:15:24;;;;;;;4.63;4.20;;;12.40;83.60;;;;;;5012116;28;20945;-70
2023/03/24 00:17:52;;;;;;;4.90;4.40;;;12.50;83.20;;;;;;5012083;28;20488;-69
2023/03/24 00:20:21;;;;;;;6.90;4.30;;;12.50;82.00;;;;;;5012314;28;20819;-69
2023/03/24 00:22:49;;;;;;;5.30;4.60;;;12.40;82.90;;;;;;5011534;28;20895;-71
2023/03/24 00:25:20;;;;;;;4.57;3.90;;;12.40;84.00;;;;;;5012077;28;20802;-70
2023/03/24 00:27:48;;;;;;;5.13;4.33;;;12.50;79.90;;;;;;5011732;28;20473;-67
2023/03/24 00:30:17;;;;;;;6.13;4.93;;;12.40;81.00;;;;;;5012124;28;20446;-68
2023/03/24 00:32:45;;;;;;;5.03;3.80;;;12.50;79.70;;;;;;5011317;28;20560;-69
2023/03/24 00:35:15;;;;;;;5.17;4.30;;;12.40;80.10;;;;;;5011608;28;20512;-71
2023/03/24 00:37:43;;;;;;;4.43;4.03;;;12.40;82.10;;;;;;5011674;28;20478;-71
2023/03/24 00:40:13;;;;;;;8.90;4.53;;;12.30;82.90;;;;;;5005324;28;20454;-68
2023/03/24 00:42:44;;;;;;;5.40;3.90;;;12.30;83.70;;;;;;5011147;28;20484;-66
2023/03/24 00:45:13;;;;;;;5.00;4.40;;;12.40;80.50;;;;;;5011277;28;20465;-69
2023/03/24 00:47:39;;;;;;;5.30;4.20;;;12.40;82.70;;;;;;5011251;28;20559;-66
2023/03/24 00:50:11;;;;;;;5.07;4.57;;;12.30;84.10;;;;;;5011549;28;21015;-69
2023/03/24 00:52:42;;;;;;;5.40;4.90;;;12.20;85.00;;;;;;5010951;28;20532;-70
2023/03/24 00:55:12;;;;;;;6.20;4.63;;;12.20;81.20;;;;;;5011395;28;20536;-71
2023/03/24 00:57:48;;;;;;;5.90;4.50;;;12.30;81.40;;;;;;5011209;28;20472;-70
2023/03/24 01:00:18;;;;;;;6.90;4.10;;;12.40;80.60;;;;;;5011407;28;20449;-65
2023/03/24 01:02:46;;;;;;;4.57;3.60;;;12.50;79.30;;;;;;5010823;28;20943;-68
2023/03/24 01:05:16;;;;;;;4.30;3.90;;;12.60;79.60;;;;;;5010975;28;20460;-66
2023/03/24 01:07:44;;;;;;;3.90;3.40;;;12.60;78.10;;;;;;5011510;28;20474;-69
2023/03/24 01:10:13;;;;;;;3.90;3.40;;;12.70;77.60;;;;;;5010891;28;20453;-67
2023/03/24 01:12:41;;;;;;;7.10;3.57;;;12.70;77.80;;;;;;5010929;28;20473;-68
2023/03/24 01:15:13;;;;;;;4.57;3.63;;;12.80;77.70;;;;;;5010976;28;20516;-70
2023/03/24 01:17:40;;;;;;;4.80;3.30;;;12.70;76.50;;;;;;5010702;28;20473;-69
2023/03/24 01:20:10;;;;;;;5.10;3.17;;;12.90;76.90;;;;;;5008268;28;20875;-70
2023/03/24 01:22:39;;;;;;;3.87;3.43;;;13.00;76.60;;;;;;5010765;28;20457;-70
2023/03/24 01:25:08;;;;;;;3.60;2.83;;;13.00;76.00;;;;;;5010918;28;20445;-68
2023/03/24 01:27:35;;;;;;;3.77;3.00;;;13.10;74.60;;;;;;5010676;28;20552;-70
2023/03/24 01:30:05;;;;;;;6.27;3.73;;;13.00;75.80;;;;;;5010861;28;20846;-69
2023/03/24 01:32:32;;;;;;;3.70;3.40;;;13.10;74.20;;;;;;5010393;28;20841;-67
2023/03/24 01:34:59;;;;;;;3.57;3.23;;;13.10;74.20;;;;;;5010642;28;20532;-69
2023/03/24 01:37:26;;;;;;;3.90;3.40;;;13.20;74.20;;;;;;5010359;28;20556;-71
2023/03/24 01:39:53;;;;;;;3.60;3.30;;;13.10;74.10;;;;;;5011178;28;20535;-68
2023/03/24 01:42:22;;;;;;;5.07;3.83;;;13.10;73.00;;;;;;5009297;28;20881;-69
2023/03/24 01:44:51;;;;;;;4.03;3.00;;;13.10;73.40;;;;;;5008011;28;21005;-69
2023/03/24 01:47:19;;;;;;;5.07;3.90;;;13.20;72.70;;;;;;5010609;28;20560;-72
2023/03/24 01:49:51;;;;;;;4.13;3.30;;;13.30;71.90;;;;;;5010348;28;20481;-72
2023/03/24 01:52:22;;;;;;;3.87;3.57;;;13.30;72.40;;;;;;5010323;28;20494;-71
2023/03/24 01:54:52;;;;;;;5.90;4.00;;;13.30;73.40;;;;;;5010098;28;20942;-69
2023/03/24 01:57:24;;;;;;;5.67;3.83;;;13.20;74.00;;;;;;5010242;28;20546;-68
2023/03/24 01:59:55;;;;;;;3.90;3.50;;;13.10;75.20;;;;;;5011103;28;20459;-70
2023/03/24 02:02:24;;;;;;;4.60;3.30;;;13.00;75.50;;;;;;5010786;28;20823;-69
2023/03/24 02:04:55;;;;;;;4.90;3.90;;;12.90;74.50;;;;;;5009092;28;20560;-69
2023/03/24 02:07:31;;;;;;;4.47;3.70;;;12.90;73.80;;;;;;5004174;28;21007;-72
2023/03/24 02:09:58;;;;;;;4.70;4.30;;;13.10;73.50;;;;;;5010418;28;20740;-69
2023/03/24 02:12:25;;;;;;;4.10;3.70;;;13.10;73.70;;;;;;5009370;28;20488;-71
2023/03/24 02:14:53;;;;;;;6.00;3.33;;;13.00;76.00;;;;;;5010209;28;20522;-70
2023/03/24 02:17:36;;;;;;;6.87;3.50;;;12.90;76.90;;;;;;5010097;28;20545;-67
2023/03/24 02:20:35;;;;;;;3.70;3.20;;;13.00;74.50;;;;;;5009896;28;20463;-70
2023/03/24 02:23:45;;;;;;;3.97;3.27;;;13.00;74.60;;;;;;5009866;28;20484;-69
2023/03/24 02:26:46;;;;;;;3.80;3.10;;;13.00;75.50;;;;;;5009057;28;20544;-70
2023/03/24 02:29:51;;;;;;;4.10;3.70;;;13.00;74.20;;;;;;5009731;28;20974;-71
2023/03/24 02:32:53;;;;;;;4.40;3.00;;;13.20;71.40;;;;;;5009608;28;20494;-68
2023/03/24 02:35:55;;;;;;;4.30;2.37;;;13.30;71.90;;;;;;5009657;28;20445;-69
2023/03/24 02:38:57;;;;;;;2.87;2.67;;;13.30;70.80;;;;;;4990459;28;20559;-70
2023/03/24 02:41:30;;;;;;;4.17;2.93;;;13.30;71.50;;;;;;4982713;28;20462;-70
2023/03/24 02:44:05;;;;;;;3.17;2.87;;;13.40;70.10;;;;;;4990037;28;20536;-71
2023/03/24 02:46:36;;;;;;;3.23;2.90;;;13.30;71.20;;;;;;4989928;28;20520;-69
2023/03/24 02:49:23;;;;;;;2.40;2.10;;;13.30;70.60;;;;;;4990012;28;21000;-69
2023/03/24 02:51:57;;;;;;;3.27;2.97;;;13.30;71.30;;;;;;4990246;28;20567;-69
2023/03/24 02:54:31;;;;;;;2.60;2.23;;;13.20;71.60;;;;;;4989859;28;20624;-69
2023/03/24 02:57:05;;;;;;;4.07;3.00;;;13.30;71.50;;;;;;4990210;28;20465;-70
2023/03/24 02:59:40;;;;;;;4.40;2.77;;;13.40;71.90;;;;;;4989968;28;20430;-71
2023/03/24 03:02:12;;;;;;;2.97;2.50;;;13.40;69.10;;;;;;4995868;28;20455;-70
2023/03/24 03:04:45;;;;;;;3.43;2.60;;;13.50;69.10;;;;;;5009114;28;20479;-69
2023/03/24 03:07:15;;;;;;;4.80;3.10;;;13.60;68.20;;;;;;5009505;28;20538;-72
2023/03/24 03:09:49;;;;;;;2.80;2.37;;;13.70;67.10;;;;;;5009438;28;20450;-68
2023/03/24 03:12:20;;;;;;;3.60;2.17;;;13.80;67.10;;;;;;5009452;28;20584;-69
2023/03/24 03:14:51;;;;;;;4.47;2.10;;;13.80;67.40;;;;;;5009387;28;20987;-69
2023/03/24 03:17:22;;;;;;;3.20;2.43;;;13.80;67.90;;;;;;5009361;28;20476;-69
2023/03/24 03:19:54;;;;;;;2.40;2.23;;;13.90;67.40;;;;;;5009423;28;20455;-69
2023/03/24 03:22:26;;;;;;;2.10;1.90;;;13.90;66.00;;;;;;5009104;28;20446;-68
2023/03/24 03:24:57;;;;;;;3.13;2.70;;;14.00;65.60;;;;;;5009433;28;20537;-66
2023/03/24 03:27:30;;;;;;;2.17;1.97;;;14.00;66.00;;;;;;5003363;28;20562;-66
2023/03/24 03:30:01;;;;;;;2.73;2.10;;;14.00;64.00;;;;;;5009520;28;20560;-69
2023/03/24 03:32:34;;;;;;;2.30;2.10;;;14.00;66.60;;;;;;5009190;28;20520;-68
2023/03/24 03:35:06;;;;;;;4.70;2.90;;;14.00;64.50;;;;;;5009381;28;21265;-69
2023/03/24 03:37:42;;;;;;;2.43;2.23;;;14.00;65.70;;;;;;5009898;28;20565;-68
2023/03/24 03:40:12;;;;;;;4.23;3.00;;;13.90;65.40;;;;;;5009175;28;20446;-70
2023/03/24 03:42:40;;;;;;;2.80;2.60;;;13.90;66.20;;;;;;5009254;28;20484;-72
2023/03/24 03:45:09;;;;;;;4.43;2.20;;;14.00;65.70;;;;;;5012532;28;20552;-69
2023/03/24 03:47:36;;;;;;;2.33;2.13;;;14.10;63.60;;;;;;5012285;28;20473;-70
2023/03/24 03:50:05;;;;;;;2.97;2.40;;;14.20;64.00;;;;;;5012681;28;20552;-69
2023/03/24 03:52:32;;;;;;;2.13;1.93;;;14.20;64.10;;;;;;5012477;28;20491;-70
2023/03/24 03:54:59;;;;;;;2.10;1.90;;;14.20;64.20;;;;;;5012687;28;20450;-68
2023/03/24 03:57:27;;;;;;;2.17;2.00;;;14.20;65.70;;;;;;5012176;28;20469;-69
2023/03/24 03:59:55;;;;;;;2.50;2.30;;;14.20;64.40;;;;;;5012581;28;20446;-70
2023/03/24 04:02:34;;;;;;;2.87;2.20;;;14.10;63.50;;;;;;5011958;28;20836;-72
2023/03/24 04:05:20;;;;;;;2.50;2.30;;;14.20;63.50;;;;;;5012606;28;20548;-71
2023/03/24 04:08:24;;;;;;;4.83;2.33;;;14.30;62.80;;;;;;5012099;28;20476;-71
2023/03/24 04:11:21;;;;;;;6.00;2.50;;;14.40;62.40;;;;;;4997201;28;20831;-69
2023/03/24 04:14:01;;;;;;;5.73;2.37;;;14.50;61.70;;;;;;5011853;28;20532;-70
2023/03/24 04:16:42;;;;;;;3.17;2.70;;;14.40;63.80;;;;;;5012297;28;20533;-71
2023/03/24 04:19:19;;;;;;;3.13;2.20;;;14.30;62.90;;;;;;5012170;28;20536;-71
2023/03/24 04:21:59;;;;;;;2.90;2.20;;;14.30;63.90;;;;;;5012367;28;20435;-71
2023/03/24 04:24:38;;;;;;;2.60;2.40;;;14.20;64.50;;;;;;5011706;28;20484;-72
2023/03/24 04:27:10;;;;;;;3.33;3.03;;;14.20;62.80;;;;;;5011797;28;20465;-71
2023/03/24 04:29:45;;;;;;;3.10;2.57;;;14.20;63.70;;;;;;5011991;28;20979;-72
2023/03/24 04:32:20;;;;;;;2.30;2.10;;;14.20;63.30;;;;;;5011578;28;20492;-71
2023/03/24 04:34:53;;;;;;;3.43;3.13;;;14.20;63.60;;;;;;5011823;28;20890;-70
2023/03/24 04:37:24;;;;;;;2.83;2.40;;;14.30;62.90;;;;;;5011235;28;20480;-69
2023/03/24 04:39:57;;;;;;;2.73;2.40;;;14.30;62.20;;;;;;5011633;28;20528;-69
2023/03/24 04:42:27;;;;;;;3.10;2.40;;;14.40;61.80;;;;;;5011408;28;20446;-70
2023/03/24 04:44:56;;;;;;;3.10;2.80;;;14.50;60.60;;;;;;5011622;28;20452;-70
2023/03/24 04:47:27;;;;;;;3.93;2.50;;;14.60;59.70;;;;;;5011490;28;20820;-69
2023/03/24 04:50:01;;;;;;;5.23;3.20;;;14.60;59.50;;;;;;5011575;28;20445;-69
2023/03/24 04:52:28;;;;;;;2.10;1.90;;;14.70;59.90;;;;;;5011344;28;20490;-69
2023/03/24 04:54:55;;;;;;;2.80;2.47;;;14.70;59.50;;;;;;5010141;28;20453;-70
2023/03/24 04:57:21;;;;;;;4.00;2.50;;;14.70;59.30;;;;;;5011379;28;20983;-69
2023/03/24 04:59:48;;;;;;;3.20;2.60;;;14.80;59.40;;;;;;5011088;28;20920;-70
2023/03/24 05:02:15;;;;;;;3.27;2.57;;;14.80;59.10;;;;;;5011355;28;20446;-70
2023/03/24 05:04:43;;;;;;;3.33;2.50;;;14.70;60.30;;;;;;5011113;28;20538;-69
2023/03/24 05:07:10;;;;;;;5.83;2.20;;;14.70;60.10;;;;;;5011043;28;20462;-72
2023/03/24 05:09:37;;;;;;;2.80;2.50;;;14.60;59.70;;;;;;5011585;28;20473;-71
2023/03/24 05:12:04;;;;;;;3.10;2.13;;;14.70;60.30;;;;;;5010966;28;20480;-69
2023/03/24 05:14:30;;;;;;;2.97;2.60;;;14.70;60.20;;;;;;5010943;28;20444;-71
2023/03/24 05:16:57;;;;;;;3.30;2.03;;;14.70;59.80;;;;;;5010905;28;20920;-70
2023/03/24 05:19:24;;;;;;;2.83;2.20;;;14.80;59.90;;;;;;5010913;28;20950;-69
2023/03/24 05:21:52;;;;;;;4.13;2.47;;;14.90;59.90;;;;;;5010855;28;20453;-69
2023/03/24 05:24:19;;;;;;;1.80;1.57;;;15.00;59.80;;;;;;5010673;28;20441;-72
2023/03/24 05:26:46;;;;;;;2.53;2.07;;;15.20;60.70;;;;;;5011526;28;20444;-69
2023/03/24 05:29:13;;;;;;;2.90;1.70;;;15.20;63.00;;;;;;5011223;28;20445;-69
2023/03/24 05:31:40;;;;;;;2.60;2.20;;;14.90;65.60;;;;;;5011057;28;20441;-73
2023/03/24 05:34:06;;;;;;;5.47;2.53;;;14.60;68.60;;;;;;5011042;28;20442;-71
2023/03/24 05:36:33;;;;;;;3.13;2.07;;;14.30;70.90;;;;;;5010824;28;20441;-69
2023/03/24 05:39:01;;;;;;;3.80;2.47;;;14.10;72.00;;;;;;5010807;28;20456;-69
2023/03/24 05:41:28;;;;;;;4.60;4.07;;;13.80;74.40;;;;;;5010630;28;20460;-69
2023/03/24 05:43:55;;;;;;;3.27;2.97;;;13.60;77.10;;;;;;5010627;28;20452;-68
2023/03/24 05:46:22;;;;;;;3.47;2.97;;;13.40;76.60;;;;;;5010477;28;20438;-69
2023/03/24 05:48:48;;;;;;;3.30;2.37;;;13.20;80.00;;;;;;5011769;28;20473;-69
2023/03/24 05:51:15;;;;;;;4.90;2.97;;;13.10;80.40;;;;;;5010767;28;20441;-70
2023/03/24 05:53:42;;;;;;;3.73;2.80;;;13.00;80.30;;;;;;5010138;28;20483;-71
2023/03/24 05:56:11;;;;;;;3.50;3.00;;;12.90;80.30;;;;;;5010658;28;20801;-69
2023/03/24 05:58:39;;;;;;;4.00;2.97;;;12.90;81.60;;;;;;5010085;28;20465;-71
2023/03/24 06:01:09;;;;;;;3.63;2.70;;;12.80;82.30;;;;;;5010385;28;20502;-71
2023/03/24 06:03:37;;;;;;;3.27;2.97;;;12.80;82.40;;;;;;5009875;28;20472;-70
2023/03/24 06:06:05;;;;;;;3.50;2.60;;;12.80;83.50;;;;;;5008371;28;20456;-68
2023/03/24 06:08:32;;;;;;;3.23;2.93;;;12.70;83.60;;;;;;4993046;28;20470;-68
2023/03/24 06:11:01;;;;;;;3.80;3.50;;;12.60;84.70;;;;;;4990486;28;20875;-71
2023/03/24 06:13:29;;;;;;;3.07;2.80;;;12.60;84.50;;;;;;4996494;28;20539;-69
2023/03/24 06:15:57;;;;;;;4.00;2.60;;;12.60;85.50;;;;;;5009563;28;20462;-70
2023/03/24 06:18:25;;;;;;;3.20;2.90;;;12.60;85.20;;;;;;5010319;28;20590;-68
2023/03/24 06:20:55;;;;;;;3.37;3.07;;;12.60;85.30;;;;;;5006859;28;20464;-71
2023/03/24 06:23:24;;;;;;;3.90;3.40;;;12.70;85.00;;;;;;5007014;28;20449;-71
2023/03/24 06:25:51;;;;;;;5.50;3.40;;;12.60;85.30;;;;;;5009565;28;20967;-70
2023/03/24 06:28:18;;;;;;;3.93;3.53;;;12.50;87.30;;;;;;5009825;28;20488;-71
2023/03/24 06:30:47;;;;;;;4.40;3.23;;;12.50;88.70;;;;;;5010178;28;20459;-68
2023/03/24 06:33:14;;;;;;;2.87;2.67;;;12.60;90.10;;;;;;5008876;28;20481;-72
2023/03/24 06:35:41;;;;;;;5.00;3.60;;;12.60;90.40;;;;;;5009441;28;20455;-69
2023/03/24 06:38:08;;;;;;;4.40;3.50;;;12.70;90.50;;;;;;5009727;28;20469;-71
2023/03/24 06:40:35;;;;;;;4.43;3.23;;;12.80;90.10;;;;;;5009714;28;20468;-71
2023/03/24 06:43:02;;;;;;;3.63;3.30;;;12.90;89.50;;;;;;5009615;28;20458;-70
2023/03/24 06:45:29;;;;;;;3.63;3.33;;;13.00;90.10;;;;;;5009839;28;20452;-71
2023/03/24 06:47:57;;;;;;;4.13;2.87;;;13.00;86.70;;;;;;5009768;28;21002;-71
2023/03/24 06:50:25;;;;;;;3.20;2.67;;;13.20;85.90;;;;;;5009872;28;20830;-70
2023/03/24 06:52:52;;;;;;;4.37;3.97;;;13.30;85.50;;;;;;5008382;28;20481;-69
2023/03/24 06:55:21;;;;;;;4.00;3.60;;;13.30;88.00;;;;;;5009711;28;20446;-69
2023/03/24 06:57:47;;;;;;;3.50;3.20;;;13.20;88.20;;;;;;5009562;28;20531;-69
2023/03/24 07:00:15;;;;;;;3.17;2.87;;;13.20;87.00;;;;;;5009974;28;20449;-68
2023/03/24 07:02:41;;;;;;;4.93;3.40;;;13.20;86.90;;;;;;5009590;28;20486;-70
2023/03/24 07:05:11;;;;;;;4.10;3.40;;;13.20;87.50;;;;;;5009716;28;20460;-68
2023/03/24 07:07:40;;;;;;;4.20;3.70;;;13.20;86.60;;;;;;5009570;28;21008;-69
2023/03/24 07:10:08;;;;;;;4.07;3.67;;;13.30;86.70;;;;;;5015692;28;21003;-69
2023/03/24 07:12:35;;;;;;;3.67;3.30;;;13.30;85.40;;;;;;5016161;28;20476;-70
2023/03/24 07:15:03;;;;;;;5.87;3.50;;;13.50;85.10;;;;;;5016019;28;20815;-72
2023/03/24 07:17:30;;;;;;;4.53;3.20;;;13.50;84.30;;;;;;5011581;28;20477;-66
2023/03/24 07:19:56;;;;;;;3.60;2.70;;;13.50;85.20;;;;;;5013502;28;20547;-70
2023/03/24 07:22:25;;;;;;;3.73;3.27;;;13.50;86.40;;;;;;5013316;28;20442;-69
2023/03/24 07:24:51;;;;;;;3.77;3.47;;;13.40;86.20;;;;;;5013817;28;20453;-70
2023/03/24 07:27:18;;;;;;;4.53;3.17;;;13.30;86.50;;;;;;5013553;28;20477;-68
2023/03/24 07:29:45;;;;;;;4.47;4.10;;;13.20;88.50;;;;;;5013756;28;20460;-69
2023/03/24 07:32:12;;;;;;;4.20;3.30;;;13.10;88.40;;;;;;5013439;28;20456;-69
2023/03/24 07:34:38;;;;;;;5.43;5.03;;;13.10;88.70;;;;;;5012779;28;21147;-68
2023/03/24 07:37:05;;;;;;;5.47;3.77;;;13.00;90.50;;;;;;5012895;28;20484;-69
2023/03/24 07:39:33;;;;;;;3.97;3.57;;;13.00;90.60;;;;;;5013370;28;20461;-69
2023/03/24 07:42:00;;;;;;;4.27;3.87;;;12.90;91.10;;;;;;5012687;28;20494;-69
2023/03/24 07:44:27;;;;;;;4.07;3.00;;;12.90;91.10;;;;;;5012752;28;20455;-70
2023/03/24 07:46:53;;;;;;;4.40;4.00;;;12.80;91.90;;;;;;5012607;28;20944;-70
2023/03/24 07:49:20;;;;;;;3.77;3.20;;;12.70;92.20;;;;;;5012674;28;20452;-68
2023/03/24 07:51:47;;;;;;;3.53;3.17;;;12.80;92.10;;;;;;5012946;28;20540;-70
2023/03/24 07:54:14;;;;;;;3.60;3.30;;;12.70;92.70;;;;;;5012632;28;20827;-68
2023/03/24 07:56:42;;;;;;;5.03;3.53;;;12.70;92.40;;;;;;5012771;28;20446;-69
2023/03/24 07:59:09;;;;;;;4.73;3.83;;;12.70;92.90;;;;;;5012693;28;20452;-68
2023/03/24 08:01:37;;;;;;;6.60;4.70;;;12.70;93.40;;;;;;5012501;28;20509;-72
2023/03/24 08:04:05;;;;;;;5.10;4.23;;;12.60;93.40;;;;;;5012120;28;20483;-70
2023/03/24 08:06:31;;;;;;;7.20;3.63;;;12.70;93.80;;;;;;5012091;28;20460;-73
2023/03/24 08:08:58;;;;;;;6.33;3.73;;;12.70;93.50;;;;;;5012379;28;20477;-72
2023/03/24 08:11:25;;;;;;;4.23;3.83;;;12.80;93.50;;;;;;5012513;28;20470;-69
2023/03/24 08:13:53;;;;;;;4.80;4.10;;;12.80;93.80;;;;;;5011937;28;20836;-71
2023/03/24 08:16:20;;;;;;;5.43;3.93;;;12.80;94.10;;;;;;5012223;28;20830;-72
2023/03/24 08:18:47;;;;;;;4.47;4.07;;;12.80;93.60;;;;;;5012085;28;21029;-71
2023/03/24 08:21:14;;;;;;;7.23;4.60;;;12.80;93.30;;;;;;5012274;28;20903;-71
2023/03/24 08:23:41;;;;;;;5.43;4.17;;;12.90;93.50;;;;;;5011851;28;20452;-68
2023/03/24 08:26:09;;;;;;;5.43;4.00;;;12.90;93.70;;;;;;5012109;28;20828;-71
2023/03/24 08:28:36;;;;;;;4.80;4.40;;;13.00;94.10;;;;;;5008157;28;20470;-72
2023/03/24 08:31:04;;;;;;;4.57;4.10;;;13.00;94.20;;;;;;5002504;28;20445;-69
2023/03/24 08:33:31;;;;;;;5.60;4.50;;;13.00;94.00;;;;;;5002113;28;21217;-70
2023/03/24 08:35:59;;;;;;;4.43;4.03;;;13.10;93.50;;;;;;5000989;28;20500;-69
2023/03/24 08:38:29;;;;;;;7.43;4.60;;;13.10;93.40;;;;;;5001329;28;20548;-70
2023/03/24 08:40:57;;;;;;;5.67;4.63;;;13.10;93.50;;;;;;5002378;28;21024;-70
2023/03/24 08:43:24;;;;;;;4.17;3.83;;;13.10;93.60;;;;;;5001149;28;20504;-69
2023/03/24 08:45:51;;;;;;;3.67;3.37;;;13.10;93.30;;;;;;5000682;28;20913;-69
2023/03/24 08:48:20;;;;;;;6.07;3.60;;;13.10;92.90;;;;;;5000707;28;20473;-69
2023/03/24 08:50:47;;;;;;;3.73;3.43;;;13.20;92.80;;;;;;5001060;28;20448;-68
2023/03/24 08:53:14;;;;;;;4.77;3.43;;;13.30;93.00;;;;;;5002111;28;20530;-68
2023/03/24 08:55:42;;;;;;;3.87;3.57;;;13.30;92.30;;;;;;5000660;28;20907;-69
2023/03/24 08:58:12;;;;;;;3.70;3.40;;;13.30;92.30;;;;;;5000378;28;20476;-72
2023/03/24 09:00:40;;;;;;;5.13;4.73;;;13.40;92.10;;;;;;5000663;28;20442;-68
2023/03/24 09:03:07;;;;;;;4.60;3.57;;;13.50;92.00;;;;;;5000535;28;20452;-73
2023/03/24 09:05:35;;;;;;;3.60;3.27;;;13.70;91.50;;;;;;5001909;28;20991;-69
2023/03/24 09:08:02;;;;;;;4.20;3.40;;;13.80;91.20;;;;;;5000844;28;20470;-69
2023/03/24 09:10:29;;;;;;;3.30;3.00;;;13.90;90.50;;;;;;4999989;28;20481;-69
2023/03/24 09:12:56;;;;;;;4.10;3.30;;;14.00;90.80;;;;;;5001601;28;20452;-71
2023/03/24 09:15:22;;;;;;;3.50;3.20;;;14.10;90.00;;;;;;5000758;28;20808;-66
2023/03/24 09:17:49;;;;;;;3.53;3.23;;;14.30;90.00;;;;;;4999986;28;20465;-71
2023/03/24 09:20:17;;;;;;;5.70;2.63;;;14.30;89.00;;;;;;5002059;28;20450;-69
2023/03/24 09:22:46;;;;;;;3.83;2.80;;;14.40;89.50;;;;;;5000454;28;20443;-70
2023/03/24 09:25:16;;;;;;;4.40;2.40;;;14.30;88.40;;;;;;5000006;28;20499;-68
2023/03/24 09:27:43;;;;;;;6.97;3.53;;;14.20;87.60;;;;;;5001514;28;20472;-68
2023/03/24 09:30:11;;;;;;;2.43;2.20;;;14.10;88.50;;;;;;4995252;28;20805;-68
2023/03/24 09:32:38;;;;;;;3.23;2.93;;;14.10;88.20;;;;;;4991337;28;20458;-72
2023/03/24 09:35:06;;;;;;;2.30;2.10;;;14.20;87.80;;;;;;4998094;28;20486;-68
2023/03/24 09:37:35;;;;;;;2.80;2.30;;;14.20;86.50;;;;;;4998615;28;20474;-68
2023/03/24 09:40:03;;;;;;;3.00;2.37;;;14.30;87.30;;;;;;4999688;28;20580;-70
2023/03/24 09:42:34;;;;;;;2.40;2.20;;;14.40;85.60;;;;;;4999895;28;20912;-70
2023/03/24 09:45:10;;;;;;;3.83;2.70;;;14.50;85.30;;;;;;4999156;28;20821;-70
2023/03/24 09:47:40;;;;;;;2.80;2.37;;;14.70;86.50;;;;;;4998596;28;20561;-69
2023/03/24 09:50:16;;;;;;;2.53;2.33;;;14.80;83.70;;;;;;4999206;28;20572;-70
2023/03/24 09:52:45;;;;;;;3.13;2.00;;;14.80;83.20;;;;;;4999291;28;20461;-70
2023/03/24 09:55:18;;;;;;;2.53;2.13;;;14.70;81.10;;;;;;4998538;28;20484;-69
2023/03/24 09:57:48;;;;;;;2.40;2.13;;;14.70;82.10;;;;;;4999506;28;20459;-71
2023/03/24 10:00:20;;;;;;;2.87;2.30;;;14.80;83.40;;;;;;4998407;28;20450;-69
2023/03/24 10:02:48;;;;;;;3.10;2.57;;;15.10;80.70;;;;;;4997805;28;20963;-71
2023/03/24 10:05:17;;;;;;;2.87;2.07;;;15.40;79.30;;;;;;5000366;28;20437;-68
2023/03/24 10:07:50;;;;;;;4.30;2.27;;;15.70;77.40;;;;;;4998884;28;20462;-71
2023/03/24 10:10:27;;;;;;;4.17;2.27;;;15.90;77.10;;;;;;4998053;28;20447;-70
2023/03/24 10:12:59;;;;;;;2.10;2.00;;;16.10;75.50;;;;;;4997909;28;20544;-67
2023/03/24 10:15:32;;;;;;;4.63;2.70;;;16.40;74.90;;;;;;4998918;28;20839;-69
2023/03/24 10:18:06;;;;;;;2.40;2.20;;;16.60;73.40;;;;;;4998097;28;20469;-69
2023/03/24 10:20:37;;;;;;;4.00;2.50;;;16.60;74.10;;;;;;4999547;28;20445;-69
2023/03/24 10:23:17;;;;;;;2.77;2.57;;;16.50;74.10;;;;;;4997146;28;20952;-68
2023/03/24 10:25:52;;;;;;;2.47;2.27;;;16.40;72.80;;;;;;4998600;28;20458;-69
2023/03/24 10:28:20;;;;;;;2.17;1.97;;;16.30;73.50;;;;;;5000017;28;20457;-69
2023/03/24 10:30:49;;;;;;;2.30;2.10;;;16.20;73.50;;;;;;4999166;28;20536;-68
2023/03/24 10:33:16;;;;;;;1.83;1.67;;;16.20;73.60;;;;;;4996366;28;20892;-69
2023/03/24 10:35:50;;;;;;;2.33;1.90;;;16.30;72.50;;;;;;4999269;28;20443;-69
2023/03/24 10:38:21;;;;;;;1.70;1.60;;;16.40;70.20;;;;;;5000062;28;20472;-70
2023/03/24 10:40:50;;;;;;;2.47;1.70;;;16.10;70.10;;;;;;4999301;28;20456;-69
2023/03/24 10:43:18;;;;;;;1.53;1.40;;;16.00;69.90;;;;;;4997686;28;20454;-70
2023/03/24 10:45:48;;;;;;;1.47;1.37;;;16.20;68.20;;;;;;4998954;28;20958;-71
2023/03/24 10:48:35;;;;;;;1.30;1.20;;;16.20;66.70;;;;;;4999941;28;20462;-69
2023/03/24 10:51:02;;;;;;;1.57;1.30;;;16.30;66.90;;;;;;4998513;28;20443;-71
2023/03/24 10:53:29;;;;;;;1.90;1.20;;;16.50;66.40;;;;;;4999778;28;20474;-68
2023/03/24 10:55:57;;;;;;;1.87;1.17;;;16.80;64.70;;;;;;5003926;28;20438;-71
2023/03/24 10:58:30;;;;;;;1.20;1.00;;;16.90;62.50;;;;;;5004030;28;20832;-71
2023/03/24 11:00:59;;;;;;;1.70;1.03;;;17.00;62.80;;;;;;5003798;28;20454;-70
2023/03/24 11:03:30;;;;;;;1.17;1.00;;;17.10;62.00;;;;;;5002754;28;20440;-71
2023/03/24 11:06:02;;;;;;;2.03;1.20;;;16.90;63.00;;;;;;5003945;28;20446;-70
2023/03/24 11:08:34;;;;;;;1.17;0.90;;;16.90;62.70;;;;;;5003095;28;20475;-70
2023/03/24 11:11:13;;;;;;;1.67;1.10;;;16.80;61.90;;;;;;5002278;28;20937;-70
2023/03/24 11:13:41;;;;;;;1.53;1.00;;;16.90;64.20;;;;;;5001341;28;20453;-73
2023/03/24 11:16:13;;;;;;;1.30;1.03;;;17.00;62.00;;;;;;5002742;28;20536;-69
2023/03/24 11:18:55;;;;;;;1.10;0.87;;;17.00;62.30;;;;;;4993864;28;20470;-67
2023/03/24 11:21:22;;;;;;;1.43;1.10;;;17.20;61.00;;;;;;5005069;28;20518;-70
2023/03/24 11:23:50;;;;;;;1.07;1.07;;;17.30;60.40;;;;;;5013424;28;20451;-70
2023/03/24 11:26:21;;;;;;;1.40;1.30;;;17.50;60.70;;;;;;5013705;28;21031;-68
2023/03/24 11:28:52;;;;;;;1.37;1.10;;;17.40;59.80;;;;;;5012978;28;20491;-68
2023/03/24 11:31:29;;;;;;;1.23;1.13;;;17.40;60.30;;;;;;5013361;28;20508;-69
2023/03/24 11:33:59;;;;;;;1.00;0.90;;;17.50;60.40;;;;;;5012888;28;20935;-70
2023/03/24 11:36:48;;;;;;;1.97;1.40;;;17.70;59.10;;;;;;5008611;28;20447;-70
2023/03/24 11:39:20;;;;;;;1.27;1.10;;;18.20;58.20;;;;;;5010472;28;20443;-69
2023/03/24 11:42:13;;;;;;;1.70;0.70;;;18.50;58.90;;;;;;5012995;28;20496;-72
2023/03/24 11:44:46;;;;;;;1.10;0.90;;;18.30;56.80;;;;;;5012463;28;20461;-72
2023/03/24 11:47:20;;;;;;;1.03;0.93;;;18.20;56.70;;;;;;5013028;28;20468;-68
2023/03/24 11:49:51;;;;;;;1.10;1.00;;;17.90;58.30;;;;;;5011810;28;20551;-70
2023/03/24 11:52:23;;;;;;;1.40;0.90;;;17.70;58.90;;;;;;5012926;28;20448;-70
2023/03/24 11:54:49;;;;;;;0.80;0.80;;;17.20;58.90;;;;;;5012578;28;20854;-70
2023/03/24 11:57:26;;;;;;;1.20;1.07;;;16.70;60.50;;;;;;5012507;28;20487;-71
2023/03/24 11:59:58;;;;;;;1.17;0.90;;;16.50;61.10;;;;;;5012816;28;20445;-70
2023/03/24 12:02:40;;;;;;;1.57;0.87;;;16.60;62.00;;;;;;5012551;28;20444;-69
2023/03/24 12:05:21;;;;;;;0.97;0.87;;;16.90;59.90;;;;;;4997381;28;20567;-69
2023/03/24 12:08:23;;;;;;;1.43;0.80;;;17.10;59.80;;;;;;5012976;28;20471;-68
2023/03/24 12:11:01;;;;;;;0.70;0.63;;;17.40;60.10;;;;;;5012769;28;20505;-68
2023/03/24 12:13:35;;;;;;;1.47;1.10;;;17.10;58.20;;;;;;5012324;28;20457;-67
2023/03/24 12:16:16;;;;;;;1.57;0.90;;;16.80;59.80;;;;;;5011950;28;20495;-69
2023/03/24 12:19:12;;;;;;;0.80;0.60;;;16.60;60.50;;;;;;5009910;28;20834;-66
2023/03/24 12:21:52;;;;;;;1.13;0.50;;;16.60;60.20;;;;;;4983198;28;20447;-68
2023/03/24 12:24:32;;;;;;;1.17;0.90;;;16.80;59.50;;;;;;5012718;28;20434;-68
2023/03/24 12:27:01;;;;;;;0.60;0.50;;;17.00;58.90;;;;;;5013363;28;20454;-68
2023/03/24 12:29:48;;;;;;;1.00;0.60;;;17.00;58.40;;;;;;5013189;28;20476;-67
2023/03/24 12:32:51;;;;;;;0.77;0.60;;;16.70;59.00;;;;;;5012988;28;20438;-69
2023/03/24 12:35:54;;;;;;;0.87;0.70;;;16.60;59.30;;;;;;4992635;28;20480;-69
2023/03/24 12:38:50;;;;;;;1.40;0.80;;;16.80;59.40;;;;;;5011373;28;20458;-71
2023/03/24 12:41:42;;;;;;;2.10;0.70;;;17.00;59.60;;;;;;5006933;28;21066;-70
2023/03/24 12:44:32;;;;;;;0.50;0.40;;;17.00;57.60;;;;;;5008919;28;20446;-70
2023/03/24 12:47:12;;;;;;;0.83;0.60;;;16.60;57.70;;;;;;5008685;28;20451;-70
2023/03/24 12:49:51;;;;;;;1.43;0.60;;;16.30;58.60;;;;;;5009352;28;20440;-69
2023/03/24 12:52:51;;;;;;;0.80;0.50;;;16.10;59.30;;;;;;5000065;28;20473;-67
2023/03/24 12:55:24;;;;;;;1.07;0.63;;;16.00;59.50;;;;;;4996725;28;20482;-68
2023/03/24 12:57:57;;;;;;;0.83;0.50;;;16.00;59.80;;;;;;5001599;28;20461;-68
2023/03/24 13:00:28;;;;;;;1.03;0.60;;;16.10;59.60;;;;;;4997539;28;20447;-68
2023/03/24 13:03:00;;;;;;;0.77;0.70;;;16.40;58.90;;;;;;4992109;28;20451;-69
2023/03/24 13:05:31;;;;;;;0.90;0.53;;;16.70;58.30;;;;;;4995379;28;20503;-70
2023/03/24 13:08:03;;;;;;;3.10;0.50;;;16.70;58.20;;;;;;4999957;28;20490;-71
2023/03/24 13:10:39;;;;;;;1.37;1.27;;;16.70;57.90;;;;;;5016279;28;20457;-74